sensor_id;sensor_type;location;lat;lon;timestamp;pressure;altitude;pressure_sealevel;temperature;humidity
56174;BME280;42058;52.308;20.924;2024-01-15T00:00:52;98481.61;;;0.31;100.00
56174;BME280;42058;52.308;20.924;2024-01-15T00:03:39;98477.29;;;0.32;100.00
56174;BME280;42058;52.308;20.924;2024-01-15T00:06:05;98480.56;;;0.32;100.00
56174;BME280;42058;52.308;20.924;2024-01-15T00:08:32;98473.66;;;0.32;100.00
56174;BME280;42058;52.308;20.924;2024-01-15T00:10:58;98467.11;;;0.33;100.00
56174;BME280;42058;52.308;20.924;2024-01-15T00:13:24;98455.17;;;0.34;100.00
56174;BME280;42058;52.308;20.924;2024-01-15T00:15:51;98453.27;;;0.34;100.00
56174;BME280;42058;52.308;20.924;2024-01-15T00:18:17;98448.60;;;0.35;100.00
56174;BME280;42058;52.308;20.924;2024-01-15T00:20:43;98440.85;;;0.34;100.00
56174;BME280;42058;52.308;20.924;2024-01-15T00:23:10;98439.66;;;0.33;100.00
56174;BME280;42058;52.308;20.924;2024-01-15T00:25:36;98436.05;;;0.33;100.00
56174;BME280;42058;52.308;20.924;2024-01-15T00:28:02;98434.48;;;0.34;100.00
56174;BME280;42058;52.308;20.924;2024-01-15T00:30:29;98428.63;;;0.34;100.00
56174;BME280;42058;52.308;20.924;2024-01-15T00:32:55;98419.30;;;0.34;100.00
56174;BME280;42058;52.308;20.924;2024-01-15T00:35:22;98415.48;;;0.34;100.00
56174;BME280;42058;52.308;20.924;2024-01-15T00:37:48;98409.80;;;0.34;100.00
56174;BME280;42058;52.308;20.924;2024-01-15T00:40:14;98410.15;;;0.35;100.00
56174;BME280;42058;52.308;20.924;2024-01-15T00:42:41;98409.79;;;0.35;100.00
56174;BME280;42058;52.308;20.924;2024-01-15T00:45:07;98404.08;;;0.36;100.00
56174;BME280;42058;52.308;20.924;2024-01-15T00:47:34;98397.52;;;0.36;100.00
56174;BME280;42058;52.308;20.924;2024-01-15T00:50:01;98396.15;;;0.36;100.00
56174;BME280;42058;52.308;20.924;2024-01-15T00:52:27;98392.35;;;0.37;100.00
56174;BME280;42058;52.308;20.924;2024-01-15T00:54:53;98395.94;;;0.37;100.00
56174;BME280;42058;52.308;20.924;2024-01-15T00:57:20;98384.90;;;0.38;100.00
56174;BME280;42058;52.308;20.924;2024-01-15T00:59:46;98386.98;;;0.38;100.00
56174;BME280;42058;52.308;20.924;2024-01-15T01:02:13;98383.52;;;0.38;100.00
56174;BME280;42058;52.308;20.924;2024-01-15T01:04:40;98382.34;;;0.37;100.00
56174;BME280;42058;52.308;20.924;2024-01-15T01:07:06;98384.42;;;0.36;100.00
56174;BME280;42058;52.308;20.924;2024-01-15T01:09:32;98382.71;;;0.35;100.00
56174;BME280;42058;52.308;20.924;2024-01-15T01:11:59;98376.17;;;0.34;100.00
56174;BME280;42058;52.308;20.924;2024-01-15T01:14:25;98373.08;;;0.34;100.00
56174;BME280;42058;52.308;20.924;2024-01-15T01:16:51;98369.46;;;0.34;100.00
56174;BME280;42058;52.308;20.924;2024-01-15T01:19:18;98368.98;;;0.33;100.00
56174;BME280;42058;52.308;20.924;2024-01-15T01:21:44;98370.19;;;0.32;100.00
56174;BME280;42058;52.308;20.924;2024-01-15T01:24:10;98367.27;;;0.31;100.00
56174;BME280;42058;52.308;20.924;2024-01-15T01:26:37;98363.67;;;0.29;100.00
56174;BME280;42058;52.308;20.924;2024-01-15T01:29:03;98366.62;;;0.29;100.00
56174;BME280;42058;52.308;20.924;2024-01-15T01:31:29;98358.16;;;0.29;100.00
56174;BME280;42058;52.308;20.924;2024-01-15T01:33:56;98356.61;;;0.29;100.00
56174;BME280;42058;52.308;20.924;2024-01-15T01:36:22;98354.02;;;0.29;100.00
56174;BME280;42058;52.308;20.924;2024-01-15T01:38:48;98351.45;;;0.28;100.00
56174;BME280;42058;52.308;20.924;2024-01-15T01:41:15;98344.08;;;0.27;100.00
56174;BME280;42058;52.308;20.924;2024-01-15T01:43:43;98342.89;;;0.26;100.00
56174;BME280;42058;52.308;20.924;2024-01-15T01:46:10;98338.76;;;0.26;100.00
56174;BME280;42058;52.308;20.924;2024-01-15T01:48:37;98332.89;;;0.25;100.00
56174;BME280;42058;52.308;20.924;2024-01-15T01:51:04;98332.55;;;0.25;100.00
56174;BME280;42058;52.308;20.924;2024-01-15T01:53:32;98327.37;;;0.25;100.00
56174;BME280;42058;52.308;20.924;2024-01-15T01:55:59;98325.99;;;0.24;100.00
56174;BME280;42058;52.308;20.924;2024-01-15T01:58:27;98324.29;;;0.24;100.00
56174;BME280;42058;52.308;20.924;2024-01-15T02:00:54;98316.88;;;0.24;100.00
56174;BME280;42058;52.308;20.924;2024-01-15T02:03:21;98318.94;;;0.24;100.00
56174;BME280;42058;52.308;20.924;2024-01-15T02:05:48;98320.33;;;0.24;100.00
56174;BME280;42058;52.308;20.924;2024-01-15T02:08:15;98317.38;;;0.24;100.00
56174;BME280;42058;52.308;20.924;2024-01-15T02:10:42;98312.89;;;0.24;100.00
56174;BME280;42058;52.308;20.924;2024-01-15T02:13:08;98312.70;;;0.25;100.00
56174;BME280;42058;52.308;20.924;2024-01-15T02:15:34;98306.66;;;0.26;100.00
56174;BME280;42058;52.308;20.924;2024-01-15T02:20:27;98297.84;;;0.27;100.00
56174;BME280;42058;52.308;20.924;2024-01-15T02:22:54;98289.73;;;0.27;100.00
56174;BME280;42058;52.308;20.924;2024-01-15T02:25:20;98286.46;;;0.27;100.00
56174;BME280;42058;52.308;20.924;2024-01-15T02:27:47;98282.15;;;0.27;100.00
56174;BME280;42058;52.308;20.924;2024-01-15T02:30:13;98278.86;;;0.28;100.00
56174;BME280;42058;52.308;20.924;2024-01-15T02:32:40;98277.45;;;0.29;100.00
56174;BME280;42058;52.308;20.924;2024-01-15T02:35:06;98272.80;;;0.29;100.00
56174;BME280;42058;52.308;20.924;2024-01-15T02:37:33;98271.09;;;0.29;100.00
56174;BME280;42058;52.308;20.924;2024-01-15T02:39:59;98271.08;;;0.29;100.00
56174;BME280;42058;52.308;20.924;2024-01-15T02:42:26;98265.21;;;0.29;100.00
56174;BME280;42058;52.308;20.924;2024-01-15T02:44:52;98261.06;;;0.29;100.00
56174;BME280;42058;52.308;20.924;2024-01-15T02:47:18;98259.34;;;0.29;100.00
56174;BME280;42058;52.308;20.924;2024-01-15T02:49:45;98252.48;;;0.27;100.00
56174;BME280;42058;52.308;20.924;2024-01-15T02:52:11;98249.70;;;0.28;100.00
56174;BME280;42058;52.308;20.924;2024-01-15T02:54:37;98244.02;;;0.28;100.00
56174;BME280;42058;52.308;20.924;2024-01-15T02:57:03;98236.27;;;0.27;100.00
56174;BME280;42058;52.308;20.924;2024-01-15T02:59:30;98232.82;;;0.28;100.00
56174;BME280;42058;52.308;20.924;2024-01-15T03:01:56;98227.48;;;0.28;100.00
56174;BME280;42058;52.308;20.924;2024-01-15T03:04:22;98220.41;;;0.27;100.00
56174;BME280;42058;52.308;20.924;2024-01-15T03:06:49;98219.59;;;0.26;100.00
56174;BME280;42058;52.308;20.924;2024-01-15T03:09:15;98215.64;;;0.25;100.00
56174;BME280;42058;52.308;20.924;2024-01-15T03:11:41;98208.05;;;0.24;100.00
56174;BME280;42058;52.308;20.924;2024-01-15T03:14:08;98208.05;;;0.24;100.00
56174;BME280;42058;52.308;20.924;2024-01-15T03:16:35;98206.34;;;0.24;100.00
56174;BME280;42058;52.308;20.924;2024-01-15T03:19:01;98202.38;;;0.24;100.00
56174;BME280;42058;52.308;20.924;2024-01-15T03:21:27;98197.06;;;0.23;100.00
56174;BME280;42058;52.308;20.924;2024-01-15T03:23:53;98198.61;;;0.23;100.00
56174;BME280;42058;52.308;20.924;2024-01-15T03:26:20;98191.06;;;0.21;100.00
56174;BME280;42058;52.308;20.924;2024-01-15T03:28:46;98188.83;;;0.20;100.00
56174;BME280;42058;52.308;20.924;2024-01-15T03:31:12;98186.93;;;0.20;100.00
56174;BME280;42058;52.308;20.924;2024-01-15T03:33:38;98182.48;;;0.19;100.00
56174;BME280;42058;52.308;20.924;2024-01-15T03:36:05;98178.84;;;0.19;100.00
56174;BME280;42058;52.308;20.924;2024-01-15T03:38:32;98173.84;;;0.19;100.00
56174;BME280;42058;52.308;20.924;2024-01-15T03:40:58;98173.88;;;0.18;100.00
56174;BME280;42058;52.308;20.924;2024-01-15T03:43:24;98173.20;;;0.17;100.00
56174;BME280;42058;52.308;20.924;2024-01-15T03:45:50;98173.55;;;0.16;100.00
56174;BME280;42058;52.308;20.924;2024-01-15T03:48:17;98168.40;;;0.16;100.00
56174;BME280;42058;52.308;20.924;2024-01-15T03:50:43;98160.11;;;0.16;100.00
56174;BME280;42058;52.308;20.924;2024-01-15T03:53:09;98158.70;;;0.17;100.00
56174;BME280;42058;52.308;20.924;2024-01-15T03:55:36;98157.86;;;0.17;100.00
56174;BME280;42058;52.308;20.924;2024-01-15T03:58:02;98152.84;;;0.17;100.00
56174;BME280;42058;52.308;20.924;2024-01-15T04:00:28;98145.08;;;0.18;100.00
56174;BME280;42058;52.308;20.924;2024-01-15T04:02:54;98144.55;;;0.18;100.00
56174;BME280;42058;52.308;20.924;2024-01-15T04:05:21;98144.04;;;0.18;100.00
56174;BME280;42058;52.308;20.924;2024-01-15T04:07:47;98140.75;;;0.18;100.00
56174;BME280;42058;52.308;20.924;2024-01-15T04:10:13;98132.66;;;0.18;100.00
56174;BME280;42058;52.308;20.924;2024-01-15T04:12:39;98128.52;;;0.18;100.00
56174;BME280;42058;52.308;20.924;2024-01-15T04:15:06;98130.08;;;0.18;100.00
56174;BME280;42058;52.308;20.924;2024-01-15T04:17:32;98123.36;;;0.17;100.00
56174;BME280;42058;52.308;20.924;2024-01-15T04:19:59;98114.08;;;0.16;100.00
56174;BME280;42058;52.308;20.924;2024-01-15T04:22:26;98109.59;;;0.17;100.00
56174;BME280;42058;52.308;20.924;2024-01-15T04:24:53;98102.70;;;0.16;100.00
56174;BME280;42058;52.308;20.924;2024-01-15T04:27:19;98091.18;;;0.14;100.00
56174;BME280;42058;52.308;20.924;2024-01-15T04:29:45;98089.23;;;0.17;100.00
56174;BME280;42058;52.308;20.924;2024-01-15T04:32:12;98086.98;;;0.17;100.00
56174;BME280;42058;52.308;20.924;2024-01-15T04:34:38;98081.09;;;0.18;100.00
56174;BME280;42058;52.308;20.924;2024-01-15T04:37:04;98073.52;;;0.17;100.00
56174;BME280;42058;52.308;20.924;2024-01-15T04:39:31;98070.20;;;0.20;100.00
56174;BME280;42058;52.308;20.924;2024-01-15T04:41:57;98073.48;;;0.19;100.00
56174;BME280;42058;52.308;20.924;2024-01-15T04:44:23;98073.81;;;0.20;100.00
56174;BME280;42058;52.308;20.924;2024-01-15T04:46:49;98072.77;;;0.21;100.00
56174;BME280;42058;52.308;20.924;2024-01-15T04:49:16;98071.04;;;0.21;100.00
56174;BME280;42058;52.308;20.924;2024-01-15T04:51:42;98069.50;;;0.21;100.00
56174;BME280;42058;52.308;20.924;2024-01-15T04:54:08;98068.60;;;0.22;100.00
56174;BME280;42058;52.308;20.924;2024-01-15T04:56:35;98067.73;;;0.23;100.00
56174;BME280;42058;52.308;20.924;2024-01-15T04:59:01;98066.50;;;0.24;100.00
56174;BME280;42058;52.308;20.924;2024-01-15T05:01:31;98065.11;;;0.24;100.00
56174;BME280;42058;52.308;20.924;2024-01-15T05:03:59;98061.48;;;0.24;100.00
56174;BME280;42058;52.308;20.924;2024-01-15T05:06:26;98064.23;;;0.24;100.00
56174;BME280;42058;52.308;20.924;2024-01-15T05:08:52;98062.01;;;0.24;100.00
56174;BME280;42058;52.308;20.924;2024-01-15T05:11:18;98059.57;;;0.25;100.00
56174;BME280;42058;52.308;20.924;2024-01-15T05:13:45;98055.77;;;0.26;100.00
56174;BME280;42058;52.308;20.924;2024-01-15T05:16:11;98051.61;;;0.27;100.00
56174;BME280;42058;52.308;20.924;2024-01-15T05:18:37;98046.77;;;0.27;100.00
56174;BME280;42058;52.308;20.924;2024-01-15T05:21:04;98050.18;;;0.28;100.00
56174;BME280;42058;52.308;20.924;2024-01-15T05:23:31;98046.56;;;0.28;100.00
56174;BME280;42058;52.308;20.924;2024-01-15T05:25:57;98040.55;;;0.27;100.00
56174;BME280;42058;52.308;20.924;2024-01-15T05:28:23;98038.45;;;0.29;100.00
56174;BME280;42058;52.308;20.924;2024-01-15T05:30:50;98039.50;;;0.28;100.00
56174;BME280;42058;52.308;20.924;2024-01-15T05:33:17;98038.80;;;0.28;100.00
56174;BME280;42058;52.308;20.924;2024-01-15T05:35:43;98042.25;;;0.29;100.00
56174;BME280;42058;52.308;20.924;2024-01-15T05:38:10;98045.16;;;0.29;100.00
56174;BME280;42058;52.308;20.924;2024-01-15T05:40:36;98038.26;;;0.30;100.00
56174;BME280;42058;52.308;20.924;2024-01-15T05:43:02;98040.33;;;0.30;100.00
56174;BME280;42058;52.308;20.924;2024-01-15T05:45:30;98038.61;;;0.29;100.00
56174;BME280;42058;52.308;20.924;2024-01-15T05:47:56;98034.64;;;0.29;100.00
56174;BME280;42058;52.308;20.924;2024-01-15T05:50:23;98038.61;;;0.29;100.00
56174;BME280;42058;52.308;20.924;2024-01-15T05:52:49;98036.54;;;0.29;100.00
56174;BME280;42058;52.308;20.924;2024-01-15T05:55:15;98036.19;;;0.29;100.00
56174;BME280;42058;52.308;20.924;2024-01-15T05:57:42;98034.29;;;0.30;100.00
56174;BME280;42058;52.308;20.924;2024-01-15T06:00:08;98026.17;;;0.30;100.00
56174;BME280;42058;52.308;20.924;2024-01-15T06:02:39;98025.68;;;0.29;100.00
56174;BME280;42058;52.308;20.924;2024-01-15T06:05:06;98029.14;;;0.29;100.00
56174;BME280;42058;52.308;20.924;2024-01-15T06:07:34;98021.06;;;0.28;100.00
56174;BME280;42058;52.308;20.924;2024-01-15T06:10:00;98014.83;;;0.29;100.00
56174;BME280;42058;52.308;20.924;2024-01-15T06:12:27;98014.33;;;0.28;100.00
56174;BME280;42058;52.308;20.924;2024-01-15T06:14:54;98013.63;;;0.28;100.00
56174;BME280;42058;52.308;20.924;2024-01-15T06:17:20;98007.42;;;0.28;100.00
56174;BME280;42058;52.308;20.924;2024-01-15T06:19:46;98004.15;;;0.28;100.00
56174;BME280;42058;52.308;20.924;2024-01-15T06:22:13;98004.18;;;0.27;100.00
56174;BME280;42058;52.308;20.924;2024-01-15T06:24:39;98003.14;;;0.27;100.00
56174;BME280;42058;52.308;20.924;2024-01-15T06:27:05;98004.33;;;0.27;100.00
56174;BME280;42058;52.308;20.924;2024-01-15T06:29:32;98001.75;;;0.27;100.00
56174;BME280;42058;52.308;20.924;2024-01-15T06:31:58;97999.50;;;0.28;100.00
56174;BME280;42058;52.308;20.924;2024-01-15T06:34:25;97999.67;;;0.28;100.00
56174;BME280;42058;52.308;20.924;2024-01-15T06:36:51;98000.37;;;0.28;100.00
56174;BME280;42058;52.308;20.924;2024-01-15T06:39:17;97998.13;;;0.28;100.00
56174;BME280;42058;52.308;20.924;2024-01-15T06:41:43;97993.14;;;0.27;100.00
56174;BME280;42058;52.308;20.924;2024-01-15T06:44:10;97992.11;;;0.27;100.00
56174;BME280;42058;52.308;20.924;2024-01-15T06:46:42;97992.28;;;0.27;100.00
56174;BME280;42058;52.308;20.924;2024-01-15T06:49:08;97990.53;;;0.27;100.00
56174;BME280;42058;52.308;20.924;2024-01-15T06:51:35;97990.20;;;0.27;100.00
56174;BME280;42058;52.308;20.924;2024-01-15T06:54:01;97990.73;;;0.27;100.00
56174;BME280;42058;52.308;20.924;2024-01-15T06:56:28;97993.52;;;0.26;100.00
56174;BME280;42058;52.308;20.924;2024-01-15T06:58:54;97997.48;;;0.26;100.00
56174;BME280;42058;52.308;20.924;2024-01-15T07:01:20;97996.46;;;0.25;100.00
56174;BME280;42058;52.308;20.924;2024-01-15T07:03:47;97998.89;;;0.24;100.00
56174;BME280;42058;52.308;20.924;2024-01-15T07:06:13;97993.23;;;0.23;100.00
56174;BME280;42058;52.308;20.924;2024-01-15T07:08:40;97995.66;;;0.23;100.00
56174;BME280;42058;52.308;20.924;2024-01-15T07:11:07;97994.27;;;0.23;100.00
56174;BME280;42058;52.308;20.924;2024-01-15T07:13:33;97994.09;;;0.23;100.00
56174;BME280;42058;52.308;20.924;2024-01-15T07:15:59;97996.70;;;0.23;100.00
56174;BME280;42058;52.308;20.924;2024-01-15T07:18:26;97993.26;;;0.22;100.00
56174;BME280;42058;52.308;20.924;2024-01-15T07:20:52;97993.76;;;0.22;100.00
56174;BME280;42058;52.308;20.924;2024-01-15T07:23:18;97990.52;;;0.21;100.00
56174;BME280;42058;52.308;20.924;2024-01-15T07:25:45;97992.91;;;0.22;100.00
56174;BME280;42058;52.308;20.924;2024-01-15T07:28:11;97994.98;;;0.22;100.00
56174;BME280;42058;52.308;20.924;2024-01-15T07:30:37;97993.79;;;0.22;100.00
56174;BME280;42058;52.308;20.924;2024-01-15T07:33:07;97991.73;;;0.21;100.00
56174;BME280;42058;52.308;20.924;2024-01-15T07:35:33;97994.20;;;0.19;100.00
56174;BME280;42058;52.308;20.924;2024-01-15T07:37:59;97995.77;;;0.18;100.00
56174;BME280;42058;52.308;20.924;2024-01-15T07:40:26;97996.48;;;0.17;100.00
56174;BME280;42058;52.308;20.924;2024-01-15T07:42:52;98001.31;;;0.16;100.00
56174;BME280;42058;52.308;20.924;2024-01-15T07:45:18;98005.81;;;0.16;100.00
56174;BME280;42058;52.308;20.924;2024-01-15T07:47:45;98005.64;;;0.15;100.00
56174;BME280;42058;52.308;20.924;2024-01-15T07:50:11;98008.77;;;0.15;100.00
56174;BME280;42058;52.308;20.924;2024-01-15T07:52:40;98003.94;;;0.15;100.00
56174;BME280;42058;52.308;20.924;2024-01-15T07:55:08;98002.20;;;0.15;100.00
56174;BME280;42058;52.308;20.924;2024-01-15T07:57:34;98009.62;;;0.15;100.00
56174;BME280;42058;52.308;20.924;2024-01-15T08:00:03;98013.75;;;0.16;100.00
56174;BME280;42058;52.308;20.924;2024-01-15T08:02:31;98011.12;;;0.17;100.00
56174;BME280;42058;52.308;20.924;2024-01-15T08:05:03;98006.42;;;0.18;100.00
56174;BME280;42058;52.308;20.924;2024-01-15T08:07:30;98007.29;;;0.19;100.00
56174;BME280;42058;52.308;20.924;2024-01-15T08:09:56;98006.23;;;0.20;100.00
56174;BME280;42058;52.308;20.924;2024-01-15T08:12:22;98005.42;;;0.18;100.00
56174;BME280;42058;52.308;20.924;2024-01-15T08:14:49;98002.70;;;0.16;100.00
56174;BME280;42058;52.308;20.924;2024-01-15T08:17:15;98000.13;;;0.16;100.00
56174;BME280;42058;52.308;20.924;2024-01-15T08:19:42;98005.30;;;0.16;100.00
56174;BME280;42058;52.308;20.924;2024-01-15T08:22:09;98006.51;;;0.16;100.00
56174;BME280;42058;52.308;20.924;2024-01-15T08:24:36;98009.20;;;0.18;100.00
56174;BME280;42058;52.308;20.924;2024-01-15T08:27:02;98004.82;;;0.22;100.00
56174;BME280;42058;52.308;20.924;2024-01-15T08:29:28;98009.02;;;0.27;100.00
56174;BME280;42058;52.308;20.924;2024-01-15T08:31:59;98008.48;;;0.34;100.00
56174;BME280;42058;52.308;20.924;2024-01-15T08:34:25;98008.71;;;0.39;100.00
56174;BME280;42058;52.308;20.924;2024-01-15T08:36:54;98014.65;;;0.43;100.00
56174;BME280;42058;52.308;20.924;2024-01-15T08:39:21;98011.80;;;0.47;100.00
56174;BME280;42058;52.308;20.924;2024-01-15T08:41:47;98014.52;;;0.48;100.00
56174;BME280;42058;52.308;20.924;2024-01-15T08:44:13;98013.60;;;0.50;100.00
56174;BME280;42058;52.308;20.924;2024-01-15T08:46:40;98016.00;;;0.51;100.00
56174;BME280;42058;52.308;20.924;2024-01-15T08:49:06;98014.63;;;0.51;100.00
56174;BME280;42058;52.308;20.924;2024-01-15T08:51:32;98018.55;;;0.53;100.00
56174;BME280;42058;52.308;20.924;2024-01-15T08:53:59;98026.99;;;0.53;100.00
56174;BME280;42058;52.308;20.924;2024-01-15T08:56:25;98023.40;;;0.52;100.00
56174;BME280;42058;52.308;20.924;2024-01-15T08:58:53;98030.66;;;0.51;100.00
56174;BME280;42058;52.308;20.924;2024-01-15T09:01:19;98030.70;;;0.49;100.00
56174;BME280;42058;52.308;20.924;2024-01-15T09:03:46;98032.32;;;0.47;100.00
56174;BME280;42058;52.308;20.924;2024-01-15T09:06:14;98033.41;;;0.45;100.00
56174;BME280;42058;52.308;20.924;2024-01-15T09:08:40;98030.16;;;0.43;100.00
56174;BME280;42058;52.308;20.924;2024-01-15T09:11:07;98022.11;;;0.42;100.00
56174;BME280;42058;52.308;20.924;2024-01-15T09:13:33;98024.51;;;0.42;100.00
56174;BME280;42058;52.308;20.924;2024-01-15T09:15:59;98028.13;;;0.42;100.00
56174;BME280;42058;52.308;20.924;2024-01-15T09:18:28;98030.38;;;0.42;100.00
56174;BME280;42058;52.308;20.924;2024-01-15T09:20:55;98026.32;;;0.46;100.00
56174;BME280;42058;52.308;20.924;2024-01-15T09:23:22;98031.93;;;0.48;100.00
56174;BME280;42058;52.308;20.924;2024-01-15T09:25:48;98025.45;;;0.52;100.00
56174;BME280;42058;52.308;20.924;2024-01-15T09:28:33;98023.61;;;0.57;100.00
56174;BME280;42058;52.308;20.924;2024-01-15T09:30:59;98019.92;;;0.60;100.00
56174;BME280;42058;52.308;20.924;2024-01-15T09:33:26;98018.78;;;0.64;100.00
56174;BME280;42058;52.308;20.924;2024-01-15T09:35:52;98008.52;;;0.68;100.00
56174;BME280;42058;52.308;20.924;2024-01-15T09:38:20;98008.92;;;0.72;100.00
56174;BME280;42058;52.308;20.924;2024-01-15T09:40:46;98009.82;;;0.77;100.00
56174;BME280;42058;52.308;20.924;2024-01-15T09:43:14;98011.41;;;0.83;100.00
56174;BME280;42058;52.308;20.924;2024-01-15T09:45:41;98012.83;;;0.88;100.00
56174;BME280;42058;52.308;20.924;2024-01-15T09:48:08;98014.29;;;0.91;100.00
56174;BME280;42058;52.308;20.924;2024-01-15T09:50:34;98015.45;;;0.93;100.00
56174;BME280;42058;52.308;20.924;2024-01-15T09:53:01;98012.48;;;0.95;100.00
56174;BME280;42058;52.308;20.924;2024-01-15T09:55:28;98008.52;;;0.94;100.00
56174;BME280;42058;52.308;20.924;2024-01-15T09:57:55;98002.84;;;0.94;100.00
56174;BME280;42058;52.308;20.924;2024-01-15T10:00:23;98000.58;;;0.94;100.00
56174;BME280;42058;52.308;20.924;2024-01-15T10:02:49;97989.55;;;0.93;100.00
56174;BME280;42058;52.308;20.924;2024-01-15T10:05:16;97993.70;;;0.93;100.00
56174;BME280;42058;52.308;20.924;2024-01-15T10:07:43;97996.94;;;0.95;100.00
56174;BME280;42058;52.308;20.924;2024-01-15T10:10:11;98000.16;;;0.97;100.00
56174;BME280;42058;52.308;20.924;2024-01-15T10:12:39;97983.05;;;0.97;100.00
56174;BME280;42058;52.308;20.924;2024-01-15T10:15:05;97987.67;;;1.00;100.00
56174;BME280;42058;52.308;20.924;2024-01-15T10:17:32;97992.33;;;1.00;100.00
56174;BME280;42058;52.308;20.924;2024-01-15T10:19:58;97994.21;;;1.00;100.00
56174;BME280;42058;52.308;20.924;2024-01-15T10:22:25;97990.57;;;1.01;100.00
56174;BME280;42058;52.308;20.924;2024-01-15T10:24:53;97989.63;;;1.04;100.00
56174;BME280;42058;52.308;20.924;2024-01-15T10:27:19;97992.85;;;1.06;100.00
56174;BME280;42058;52.308;20.924;2024-01-15T10:29:46;97988.70;;;1.06;100.00
56174;BME280;42058;52.308;20.924;2024-01-15T10:32:12;97982.84;;;1.06;100.00
56174;BME280;42058;52.308;20.924;2024-01-15T10:34:39;97978.48;;;1.07;100.00
56174;BME280;42058;52.308;20.924;2024-01-15T10:37:09;97975.38;;;1.07;100.00
56174;BME280;42058;52.308;20.924;2024-01-15T10:39:36;97975.54;;;1.08;100.00
56174;BME280;42058;52.308;20.924;2024-01-15T10:42:03;97978.73;;;1.10;100.00
56174;BME280;42058;52.308;20.924;2024-01-15T10:44:30;97991.10;;;1.12;100.00
56174;BME280;42058;52.308;20.924;2024-01-15T10:46:56;97991.23;;;1.14;100.00
56174;BME280;42058;52.308;20.924;2024-01-15T10:49:24;97993.43;;;1.16;100.00
56174;BME280;42058;52.308;20.924;2024-01-15T10:51:57;97988.67;;;1.19;100.00
56174;BME280;42058;52.308;20.924;2024-01-15T10:54:24;97986.73;;;1.20;100.00
56174;BME280;42058;52.308;20.924;2024-01-15T10:56:53;97991.54;;;1.22;100.00
56174;BME280;42058;52.308;20.924;2024-01-15T10:59:20;97991.67;;;1.23;100.00
56174;BME280;42058;52.308;20.924;2024-01-15T11:01:50;97988.73;;;1.23;100.00
56174;BME280;42058;52.308;20.924;2024-01-15T11:04:20;97988.95;;;1.22;100.00
56174;BME280;42058;52.308;20.924;2024-01-15T11:06:50;97989.93;;;1.18;100.00
56174;BME280;42058;52.308;20.924;2024-01-15T11:09:16;97987.22;;;1.16;100.00
56174;BME280;42058;52.308;20.924;2024-01-15T11:11:46;97986.91;;;1.15;100.00
56174;BME280;42058;52.308;20.924;2024-01-15T11:17:04;97977.95;;;1.14;100.00
56174;BME280;42058;52.308;20.924;2024-01-15T11:22:08;97972.98;;;1.12;100.00
56174;BME280;42058;52.308;20.924;2024-01-15T11:24:37;97970.36;;;1.13;100.00
56174;BME280;42058;52.308;20.924;2024-01-15T11:27:05;97964.30;;;1.14;100.00
56174;BME280;42058;52.308;20.924;2024-01-15T11:29:36;97970.48;;;1.15;100.00
56174;BME280;42058;52.308;20.924;2024-01-15T11:32:10;97966.67;;;1.15;100.00
56174;BME280;42058;52.308;20.924;2024-01-15T11:34:56;97963.79;;;1.14;100.00
56174;BME280;42058;52.308;20.924;2024-01-15T11:37:25;97957.39;;;1.14;100.00
56174;BME280;42058;52.308;20.924;2024-01-15T11:39:56;97964.45;;;1.14;100.00
56174;BME280;42058;52.308;20.924;2024-01-15T11:42:26;97960.68;;;1.14;100.00
56174;BME280;42058;52.308;20.924;2024-01-15T11:44:53;97962.48;;;1.11;100.00
56174;BME280;42058;52.308;20.924;2024-01-15T11:50:24;97961.49;;;1.03;100.00
56174;BME280;42058;52.308;20.924;2024-01-15T11:52:58;97963.45;;;1.01;100.00
56174;BME280;42058;52.308;20.924;2024-01-15T11:55:34;97961.21;;;1.01;100.00
56174;BME280;42058;52.308;20.924;2024-01-15T11:58:13;97960.12;;;1.03;100.00
56174;BME280;42058;52.308;20.924;2024-01-15T12:00:40;97961.45;;;1.05;100.00
56174;BME280;42058;52.308;20.924;2024-01-15T12:03:08;97959.67;;;1.06;100.00
56174;BME280;42058;52.308;20.924;2024-01-15T12:05:37;97957.77;;;1.07;100.00
56174;BME280;42058;52.308;20.924;2024-01-15T12:08:03;97954.35;;;1.06;100.00
56174;BME280;42058;52.308;20.924;2024-01-15T12:10:40;97951.59;;;1.05;100.00
56174;BME280;42058;52.308;20.924;2024-01-15T12:13:12;97953.52;;;1.04;100.00
56174;BME280;42058;52.308;20.924;2024-01-15T12:15:39;97957.20;;;1.03;100.00
56174;BME280;42058;52.308;20.924;2024-01-15T12:18:12;97947.45;;;0.99;100.00
56174;BME280;42058;52.308;20.924;2024-01-15T12:20:39;97954.27;;;0.96;100.00
56174;BME280;42058;52.308;20.924;2024-01-15T12:23:06;97943.85;;;0.92;100.00
56174;BME280;42058;52.308;20.924;2024-01-15T12:25:35;97947.45;;;0.93;100.00
56174;BME280;42058;52.308;20.924;2024-01-15T12:28:02;97940.86;;;0.94;100.00
56174;BME280;42058;52.308;20.924;2024-01-15T12:30:29;97940.89;;;0.92;100.00
56174;BME280;42058;52.308;20.924;2024-01-15T12:32:57;97946.11;;;0.91;100.00
56174;BME280;42058;52.308;20.924;2024-01-15T12:35:24;97945.66;;;0.89;100.00
56174;BME280;42058;52.308;20.924;2024-01-15T12:37:54;97947.13;;;0.85;100.00
56174;BME280;42058;52.308;20.924;2024-01-15T12:40:21;97944.41;;;0.78;100.00
56174;BME280;42058;52.308;20.924;2024-01-15T12:42:48;97947.08;;;0.68;100.00
56174;BME280;42058;52.308;20.924;2024-01-15T12:45:14;97947.30;;;0.60;100.00
56174;BME280;42058;52.308;20.924;2024-01-15T12:47:41;97945.34;;;0.55;100.00
56174;BME280;42058;52.308;20.924;2024-01-15T12:50:12;97944.39;;;0.52;100.00
56174;BME280;42058;52.308;20.924;2024-01-15T12:52:46;97942.51;;;0.52;100.00
56174;BME280;42058;52.308;20.924;2024-01-15T12:55:13;97944.02;;;0.52;100.00
56174;BME280;42058;52.308;20.924;2024-01-15T12:57:39;97948.35;;;0.52;100.00
56174;BME280;42058;52.308;20.924;2024-01-15T13:00:06;97949.41;;;0.51;100.00